sensor_id;sensor_type;location;lat;lon;timestamp;P1;durP1;ratioP1;P2;durP2;ratioP2
52586;SDS011;38480;52.724;6.436;2023-08-07T00:02:08;21.67;;;13.90;;
52586;SDS011;38480;52.724;6.436;2023-08-07T00:04:34;33.67;;;14.93;;
52586;SDS011;38480;52.724;6.436;2023-08-07T00:07:01;22.17;;;12.17;;
52586;SDS011;38480;52.724;6.436;2023-08-07T00:09:27;27.13;;;13.47;;
52586;SDS011;38480;52.724;6.436;2023-08-07T00:11:53;28.30;;;13.80;;
52586;SDS011;38480;52.724;6.436;2023-08-07T00:14:19;32.43;;;14.77;;
52586;SDS011;38480;52.724;6.436;2023-08-07T00:16:45;17.70;;;11.60;;
52586;SDS011;38480;52.724;6.436;2023-08-07T00:19:11;23.27;;;12.07;;
52586;SDS011;38480;52.724;6.436;2023-08-07T00:21:37;21.93;;;11.73;;
52586;SDS011;38480;52.724;6.436;2023-08-07T00:24:04;16.53;;;10.73;;
52586;SDS011;38480;52.724;6.436;2023-08-07T00:26:30;23.03;;;12.10;;
52586;SDS011;38480;52.724;6.436;2023-08-07T00:28:57;27.13;;;13.17;;
52586;SDS011;38480;52.724;6.436;2023-08-07T00:31:23;27.93;;;13.67;;
52586;SDS011;38480;52.724;6.436;2023-08-07T00:33:49;17.30;;;9.27;;
52586;SDS011;38480;52.724;6.436;2023-08-07T00:36:18;15.20;;;9.00;;
52586;SDS011;38480;52.724;6.436;2023-08-07T00:38:44;21.33;;;10.03;;
52586;SDS011;38480;52.724;6.436;2023-08-07T00:41:10;15.33;;;9.07;;
52586;SDS011;38480;52.724;6.436;2023-08-07T00:43:36;14.73;;;9.07;;
52586;SDS011;38480;52.724;6.436;2023-08-07T00:46:02;23.57;;;11.37;;
52586;SDS011;38480;52.724;6.436;2023-08-07T00:48:28;15.07;;;8.97;;
52586;SDS011;38480;52.724;6.436;2023-08-07T00:50:54;15.53;;;8.90;;
52586;SDS011;38480;52.724;6.436;2023-08-07T00:53:21;20.23;;;10.43;;
52586;SDS011;38480;52.724;6.436;2023-08-07T00:55:47;29.87;;;13.23;;
52586;SDS011;38480;52.724;6.436;2023-08-07T00:58:13;22.73;;;10.07;;
52586;SDS011;38480;52.724;6.436;2023-08-07T01:00:39;28.83;;;10.70;;
52586;SDS011;38480;52.724;6.436;2023-08-07T01:03:07;25.17;;;8.67;;
52586;SDS011;38480;52.724;6.436;2023-08-07T01:05:33;20.00;;;10.87;;
52586;SDS011;38480;52.724;6.436;2023-08-07T01:08:00;21.33;;;9.80;;
52586;SDS011;38480;52.724;6.436;2023-08-07T01:10:33;23.27;;;9.87;;
52586;SDS011;38480;52.724;6.436;2023-08-07T01:13:05;28.60;;;10.17;;
52586;SDS011;38480;52.724;6.436;2023-08-07T01:15:34;30.63;;;10.93;;
52586;SDS011;38480;52.724;6.436;2023-08-07T01:18:02;22.97;;;9.33;;
52586;SDS011;38480;52.724;6.436;2023-08-07T01:20:29;24.70;;;9.57;;
52586;SDS011;38480;52.724;6.436;2023-08-07T01:22:56;18.33;;;9.20;;
52586;SDS011;38480;52.724;6.436;2023-08-07T01:25:22;24.50;;;8.93;;
52586;SDS011;38480;52.724;6.436;2023-08-07T01:28:11;26.63;;;9.23;;
52586;SDS011;38480;52.724;6.436;2023-08-07T01:30:40;21.27;;;7.87;;
52586;SDS011;38480;52.724;6.436;2023-08-07T01:35:43;23.27;;;7.83;;
52586;SDS011;38480;52.724;6.436;2023-08-07T01:38:10;18.50;;;8.10;;
52586;SDS011;38480;52.724;6.436;2023-08-07T01:40:40;19.23;;;8.40;;
52586;SDS011;38480;52.724;6.436;2023-08-07T01:43:07;20.47;;;7.97;;
52586;SDS011;38480;52.724;6.436;2023-08-07T01:45:33;17.17;;;7.30;;
52586;SDS011;38480;52.724;6.436;2023-08-07T01:47:59;19.60;;;7.00;;
52586;SDS011;38480;52.724;6.436;2023-08-07T01:50:25;23.67;;;7.20;;
52586;SDS011;38480;52.724;6.436;2023-08-07T01:52:51;20.07;;;6.30;;
52586;SDS011;38480;52.724;6.436;2023-08-07T01:55:18;18.90;;;7.23;;
52586;SDS011;38480;52.724;6.436;2023-08-07T01:57:44;25.23;;;7.13;;
52586;SDS011;38480;52.724;6.436;2023-08-07T02:00:10;16.43;;;5.97;;
52586;SDS011;38480;52.724;6.436;2023-08-07T02:02:37;23.13;;;5.37;;
52586;SDS011;38480;52.724;6.436;2023-08-07T02:05:03;16.97;;;5.47;;
52586;SDS011;38480;52.724;6.436;2023-08-07T02:07:29;18.93;;;7.23;;
52586;SDS011;38480;52.724;6.436;2023-08-07T02:09:56;22.73;;;7.43;;
52586;SDS011;38480;52.724;6.436;2023-08-07T02:12:22;26.53;;;7.10;;
52586;SDS011;38480;52.724;6.436;2023-08-07T02:14:48;17.73;;;6.47;;
52586;SDS011;38480;52.724;6.436;2023-08-07T02:17:14;23.70;;;6.80;;
52586;SDS011;38480;52.724;6.436;2023-08-07T02:19:40;17.50;;;5.53;;
52586;SDS011;38480;52.724;6.436;2023-08-07T02:22:05;20.37;;;6.20;;
52586;SDS011;38480;52.724;6.436;2023-08-07T02:24:31;19.53;;;5.20;;
52586;SDS011;38480;52.724;6.436;2023-08-07T02:26:57;21.37;;;6.10;;
52586;SDS011;38480;52.724;6.436;2023-08-07T02:29:23;15.33;;;6.20;;
52586;SDS011;38480;52.724;6.436;2023-08-07T02:31:49;27.20;;;6.43;;
52586;SDS011;38480;52.724;6.436;2023-08-07T02:34:15;23.30;;;5.53;;
52586;SDS011;38480;52.724;6.436;2023-08-07T02:36:41;23.30;;;4.93;;
52586;SDS011;38480;52.724;6.436;2023-08-07T02:39:07;20.43;;;4.87;;
52586;SDS011;38480;52.724;6.436;2023-08-07T02:41:33;17.07;;;4.80;;
52586;SDS011;38480;52.724;6.436;2023-08-07T02:43:59;19.90;;;4.33;;
52586;SDS011;38480;52.724;6.436;2023-08-07T02:46:25;22.57;;;4.73;;
52586;SDS011;38480;52.724;6.436;2023-08-07T02:48:51;16.30;;;4.00;;
52586;SDS011;38480;52.724;6.436;2023-08-07T02:51:18;21.53;;;4.50;;
52586;SDS011;38480;52.724;6.436;2023-08-07T02:53:44;24.73;;;4.90;;
52586;SDS011;38480;52.724;6.436;2023-08-07T02:56:10;17.40;;;3.63;;
52586;SDS011;38480;52.724;6.436;2023-08-07T02:58:36;17.50;;;4.10;;
52586;SDS011;38480;52.724;6.436;2023-08-07T03:01:03;17.33;;;4.70;;
52586;SDS011;38480;52.724;6.436;2023-08-07T03:03:30;14.27;;;3.87;;
52586;SDS011;38480;52.724;6.436;2023-08-07T03:05:56;24.27;;;4.63;;
52586;SDS011;38480;52.724;6.436;2023-08-07T03:08:22;18.93;;;4.20;;
52586;SDS011;38480;52.724;6.436;2023-08-07T03:10:51;21.67;;;4.40;;
52586;SDS011;38480;52.724;6.436;2023-08-07T03:13:17;18.37;;;4.13;;
52586;SDS011;38480;52.724;6.436;2023-08-07T03:15:43;23.63;;;4.87;;
52586;SDS011;38480;52.724;6.436;2023-08-07T03:18:09;20.53;;;4.53;;
52586;SDS011;38480;52.724;6.436;2023-08-07T03:20:38;13.83;;;4.53;;
52586;SDS011;38480;52.724;6.436;2023-08-07T03:23:04;22.17;;;5.40;;
52586;SDS011;38480;52.724;6.436;2023-08-07T03:25:30;18.00;;;4.40;;
52586;SDS011;38480;52.724;6.436;2023-08-07T03:27:56;24.40;;;4.70;;
52586;SDS011;38480;52.724;6.436;2023-08-07T03:30:22;22.27;;;4.50;;
52586;SDS011;38480;52.724;6.436;2023-08-07T03:32:48;17.70;;;4.27;;
52586;SDS011;38480;52.724;6.436;2023-08-07T03:35:15;22.30;;;4.83;;
52586;SDS011;38480;52.724;6.436;2023-08-07T03:37:41;21.90;;;4.77;;
52586;SDS011;38480;52.724;6.436;2023-08-07T03:40:07;16.43;;;4.53;;
52586;SDS011;38480;52.724;6.436;2023-08-07T03:42:33;21.27;;;5.17;;
52586;SDS011;38480;52.724;6.436;2023-08-07T03:44:59;18.97;;;4.50;;
52586;SDS011;38480;52.724;6.436;2023-08-07T03:47:25;19.17;;;4.87;;
52586;SDS011;38480;52.724;6.436;2023-08-07T03:49:51;22.53;;;4.80;;
52586;SDS011;38480;52.724;6.436;2023-08-07T03:52:17;26.13;;;5.50;;
52586;SDS011;38480;52.724;6.436;2023-08-07T03:54:43;19.10;;;4.83;;
52586;SDS011;38480;52.724;6.436;2023-08-07T03:57:10;17.40;;;4.83;;
52586;SDS011;38480;52.724;6.436;2023-08-07T03:59:36;22.27;;;5.00;;
52586;SDS011;38480;52.724;6.436;2023-08-07T04:02:02;19.93;;;5.80;;
52586;SDS011;38480;52.724;6.436;2023-08-07T04:04:28;31.80;;;6.17;;
52586;SDS011;38480;52.724;6.436;2023-08-07T04:06:54;18.50;;;3.60;;
52586;SDS011;38480;52.724;6.436;2023-08-07T04:09:20;27.23;;;4.80;;
52586;SDS011;38480;52.724;6.436;2023-08-07T04:11:46;18.20;;;4.30;;
52586;SDS011;38480;52.724;6.436;2023-08-07T04:14:12;10.77;;;3.87;;
52586;SDS011;38480;52.724;6.436;2023-08-07T04:16:38;17.87;;;4.33;;
52586;SDS011;38480;52.724;6.436;2023-08-07T04:19:04;14.10;;;3.90;;
52586;SDS011;38480;52.724;6.436;2023-08-07T04:21:32;17.47;;;4.47;;
52586;SDS011;38480;52.724;6.436;2023-08-07T04:23:58;12.93;;;3.80;;
52586;SDS011;38480;52.724;6.436;2023-08-07T04:26:35;9.13;;;3.00;;
52586;SDS011;38480;52.724;6.436;2023-08-07T04:29:01;16.23;;;3.57;;
52586;SDS011;38480;52.724;6.436;2023-08-07T04:31:27;14.73;;;4.07;;
52586;SDS011;38480;52.724;6.436;2023-08-07T04:33:55;12.60;;;4.23;;
52586;SDS011;38480;52.724;6.436;2023-08-07T04:36:21;19.63;;;5.60;;
52586;SDS011;38480;52.724;6.436;2023-08-07T04:38:47;13.23;;;4.27;;
52586;SDS011;38480;52.724;6.436;2023-08-07T04:41:13;20.90;;;6.37;;
52586;SDS011;38480;52.724;6.436;2023-08-07T04:43:39;11.67;;;4.10;;
52586;SDS011;38480;52.724;6.436;2023-08-07T04:46:07;16.33;;;5.30;;
52586;SDS011;38480;52.724;6.436;2023-08-07T04:48:34;17.93;;;5.73;;
52586;SDS011;38480;52.724;6.436;2023-08-07T04:51:00;18.87;;;5.80;;
52586;SDS011;38480;52.724;6.436;2023-08-07T04:53:27;19.53;;;6.30;;
52586;SDS011;38480;52.724;6.436;2023-08-07T04:55:53;17.47;;;4.93;;
52586;SDS011;38480;52.724;6.436;2023-08-07T04:58:19;18.47;;;5.37;;
52586;SDS011;38480;52.724;6.436;2023-08-07T05:00:45;23.23;;;7.30;;
52586;SDS011;38480;52.724;6.436;2023-08-07T05:03:12;25.33;;;6.67;;
52586;SDS011;38480;52.724;6.436;2023-08-07T05:05:38;21.27;;;6.87;;
52586;SDS011;38480;52.724;6.436;2023-08-07T05:08:04;22.77;;;6.43;;
52586;SDS011;38480;52.724;6.436;2023-08-07T05:10:30;19.70;;;5.73;;
52586;SDS011;38480;52.724;6.436;2023-08-07T05:12:56;23.40;;;6.30;;
52586;SDS011;38480;52.724;6.436;2023-08-07T05:15:22;23.17;;;6.43;;
52586;SDS011;38480;52.724;6.436;2023-08-07T05:17:49;24.93;;;6.93;;
52586;SDS011;38480;52.724;6.436;2023-08-07T05:20:15;16.20;;;4.83;;
52586;SDS011;38480;52.724;6.436;2023-08-07T05:22:42;27.07;;;6.07;;
52586;SDS011;38480;52.724;6.436;2023-08-07T05:25:08;18.53;;;6.50;;
52586;SDS011;38480;52.724;6.436;2023-08-07T05:27:34;24.77;;;6.80;;
52586;SDS011;38480;52.724;6.436;2023-08-07T05:30:01;21.33;;;6.40;;
52586;SDS011;38480;52.724;6.436;2023-08-07T05:32:27;26.67;;;8.03;;
52586;SDS011;38480;52.724;6.436;2023-08-07T05:34:53;20.77;;;6.10;;
52586;SDS011;38480;52.724;6.436;2023-08-07T05:37:19;20.47;;;5.73;;
52586;SDS011;38480;52.724;6.436;2023-08-07T05:39:46;18.23;;;5.27;;
52586;SDS011;38480;52.724;6.436;2023-08-07T05:42:12;21.77;;;6.50;;
52586;SDS011;38480;52.724;6.436;2023-08-07T05:44:38;14.50;;;5.27;;
52586;SDS011;38480;52.724;6.436;2023-08-07T05:47:04;21.70;;;5.93;;
52586;SDS011;38480;52.724;6.436;2023-08-07T05:49:30;19.97;;;5.10;;
52586;SDS011;38480;52.724;6.436;2023-08-07T05:51:56;27.23;;;5.87;;
52586;SDS011;38480;52.724;6.436;2023-08-07T05:54:22;21.73;;;6.33;;
52586;SDS011;38480;52.724;6.436;2023-08-07T05:56:48;32.23;;;6.97;;
52586;SDS011;38480;52.724;6.436;2023-08-07T05:59:14;30.33;;;6.80;;
52586;SDS011;38480;52.724;6.436;2023-08-07T06:01:40;26.83;;;7.67;;
52586;SDS011;38480;52.724;6.436;2023-08-07T06:04:06;25.20;;;6.73;;
52586;SDS011;38480;52.724;6.436;2023-08-07T06:06:33;24.80;;;7.00;;
52586;SDS011;38480;52.724;6.436;2023-08-07T06:09:00;24.63;;;7.13;;
52586;SDS011;38480;52.724;6.436;2023-08-07T06:11:28;23.33;;;6.20;;
52586;SDS011;38480;52.724;6.436;2023-08-07T06:13:54;21.27;;;6.33;;
52586;SDS011;38480;52.724;6.436;2023-08-07T06:16:20;18.13;;;6.37;;
52586;SDS011;38480;52.724;6.436;2023-08-07T06:18:46;19.77;;;5.23;;
52586;SDS011;38480;52.724;6.436;2023-08-07T06:21:12;22.37;;;5.83;;
52586;SDS011;38480;52.724;6.436;2023-08-07T06:23:38;19.63;;;5.83;;
52586;SDS011;38480;52.724;6.436;2023-08-07T06:26:04;20.20;;;5.20;;
52586;SDS011;38480;52.724;6.436;2023-08-07T06:28:32;20.57;;;5.20;;
52586;SDS011;38480;52.724;6.436;2023-08-07T06:31:02;16.23;;;4.63;;
52586;SDS011;38480;52.724;6.436;2023-08-07T06:33:29;25.03;;;5.27;;
52586;SDS011;38480;52.724;6.436;2023-08-07T06:35:55;25.50;;;6.10;;
52586;SDS011;38480;52.724;6.436;2023-08-07T06:38:21;25.70;;;5.90;;
52586;SDS011;38480;52.724;6.436;2023-08-07T06:40:47;23.50;;;5.07;;
52586;SDS011;38480;52.724;6.436;2023-08-07T06:43:13;19.77;;;5.30;;
52586;SDS011;38480;52.724;6.436;2023-08-07T06:45:39;19.83;;;5.13;;
52586;SDS011;38480;52.724;6.436;2023-08-07T06:48:05;22.10;;;5.50;;
52586;SDS011;38480;52.724;6.436;2023-08-07T06:50:31;26.20;;;5.33;;
52586;SDS011;38480;52.724;6.436;2023-08-07T06:52:57;24.27;;;6.00;;
52586;SDS011;38480;52.724;6.436;2023-08-07T06:55:23;23.63;;;5.93;;
52586;SDS011;38480;52.724;6.436;2023-08-07T06:57:49;23.50;;;6.10;;
52586;SDS011;38480;52.724;6.436;2023-08-07T07:00:15;22.10;;;5.70;;
52586;SDS011;38480;52.724;6.436;2023-08-07T07:02:41;29.70;;;6.30;;
52586;SDS011;38480;52.724;6.436;2023-08-07T07:05:07;17.53;;;5.03;;
52586;SDS011;38480;52.724;6.436;2023-08-07T07:07:33;18.90;;;5.57;;
52586;SDS011;38480;52.724;6.436;2023-08-07T07:09:59;22.57;;;5.57;;
52586;SDS011;38480;52.724;6.436;2023-08-07T07:12:26;17.53;;;5.43;;
52586;SDS011;38480;52.724;6.436;2023-08-07T07:14:52;28.70;;;6.73;;
52586;SDS011;38480;52.724;6.436;2023-08-07T07:17:18;19.17;;;4.13;;
52586;SDS011;38480;52.724;6.436;2023-08-07T07:19:44;13.53;;;3.70;;
52586;SDS011;38480;52.724;6.436;2023-08-07T07:22:10;16.83;;;3.83;;
52586;SDS011;38480;52.724;6.436;2023-08-07T07:24:37;14.90;;;3.50;;
52586;SDS011;38480;52.724;6.436;2023-08-07T07:27:03;14.00;;;3.80;;
52586;SDS011;38480;52.724;6.436;2023-08-07T07:29:29;16.63;;;3.70;;
52586;SDS011;38480;52.724;6.436;2023-08-07T07:31:56;12.57;;;3.50;;
52586;SDS011;38480;52.724;6.436;2023-08-07T07:34:22;10.47;;;2.83;;
52586;SDS011;38480;52.724;6.436;2023-08-07T07:36:48;12.53;;;3.20;;
52586;SDS011;38480;52.724;6.436;2023-08-07T07:39:14;11.60;;;3.20;;
52586;SDS011;38480;52.724;6.436;2023-08-07T07:41:40;13.13;;;3.37;;
52586;SDS011;38480;52.724;6.436;2023-08-07T07:44:06;18.93;;;3.73;;
52586;SDS011;38480;52.724;6.436;2023-08-07T07:46:33;12.87;;;2.73;;
52586;SDS011;38480;52.724;6.436;2023-08-07T07:48:59;11.70;;;3.00;;
52586;SDS011;38480;52.724;6.436;2023-08-07T07:51:26;14.33;;;3.47;;
52586;SDS011;38480;52.724;6.436;2023-08-07T07:53:53;11.83;;;3.23;;
52586;SDS011;38480;52.724;6.436;2023-08-07T07:56:19;11.37;;;2.90;;
52586;SDS011;38480;52.724;6.436;2023-08-07T07:58:45;13.50;;;3.20;;
52586;SDS011;38480;52.724;6.436;2023-08-07T08:01:11;8.13;;;2.67;;
52586;SDS011;38480;52.724;6.436;2023-08-07T08:03:37;12.97;;;3.30;;
52586;SDS011;38480;52.724;6.436;2023-08-07T08:06:03;6.93;;;2.77;;
52586;SDS011;38480;52.724;6.436;2023-08-07T08:08:30;11.37;;;2.57;;
52586;SDS011;38480;52.724;6.436;2023-08-07T08:10:56;12.83;;;2.97;;
52586;SDS011;38480;52.724;6.436;2023-08-07T08:13:22;11.50;;;3.73;;
52586;SDS011;38480;52.724;6.436;2023-08-07T08:15:50;14.53;;;3.60;;
52586;SDS011;38480;52.724;6.436;2023-08-07T08:18:16;13.53;;;3.27;;
52586;SDS011;38480;52.724;6.436;2023-08-07T08:20:42;13.30;;;3.60;;
52586;SDS011;38480;52.724;6.436;2023-08-07T08:23:08;11.07;;;3.33;;
52586;SDS011;38480;52.724;6.436;2023-08-07T08:25:33;10.67;;;3.03;;
52586;SDS011;38480;52.724;6.436;2023-08-07T08:27:59;10.93;;;3.10;;
52586;SDS011;38480;52.724;6.436;2023-08-07T08:30:25;10.13;;;2.80;;
52586;SDS011;38480;52.724;6.436;2023-08-07T08:32:51;12.20;;;3.43;;
52586;SDS011;38480;52.724;6.436;2023-08-07T08:35:20;11.03;;;3.07;;
52586;SDS011;38480;52.724;6.436;2023-08-07T08:37:46;13.30;;;3.30;;
52586;SDS011;38480;52.724;6.436;2023-08-07T08:40:12;13.10;;;3.60;;
52586;SDS011;38480;52.724;6.436;2023-08-07T08:42:43;10.07;;;2.80;;
52586;SDS011;38480;52.724;6.436;2023-08-07T08:45:10;12.87;;;3.37;;
52586;SDS011;38480;52.724;6.436;2023-08-07T08:47:37;13.63;;;4.63;;
52586;SDS011;38480;52.724;6.436;2023-08-07T08:50:08;13.87;;;3.70;;
52586;SDS011;38480;52.724;6.436;2023-08-07T08:52:36;22.87;;;4.97;;
52586;SDS011;38480;52.724;6.436;2023-08-07T08:55:03;17.80;;;5.30;;
52586;SDS011;38480;52.724;6.436;2023-08-07T08:57:31;13.83;;;3.23;;
52586;SDS011;38480;52.724;6.436;2023-08-07T08:59:59;12.77;;;3.67;;
52586;SDS011;38480;52.724;6.436;2023-08-07T09:02:26;19.80;;;4.40;;
52586;SDS011;38480;52.724;6.436;2023-08-07T09:04:53;13.00;;;3.97;;
52586;SDS011;38480;52.724;6.436;2023-08-07T09:07:19;16.40;;;5.00;;
52586;SDS011;38480;52.724;6.436;2023-08-07T09:09:46;16.37;;;4.43;;
52586;SDS011;38480;52.724;6.436;2023-08-07T09:12:15;17.93;;;3.70;;
52586;SDS011;38480;52.724;6.436;2023-08-07T09:14:41;13.50;;;4.17;;
52586;SDS011;38480;52.724;6.436;2023-08-07T09:17:10;17.13;;;4.80;;
52586;SDS011;38480;52.724;6.436;2023-08-07T09:19:37;13.03;;;3.67;;
52586;SDS011;38480;52.724;6.436;2023-08-07T09:22:03;18.13;;;5.53;;
52586;SDS011;38480;52.724;6.436;2023-08-07T09:24:29;14.53;;;3.97;;
52586;SDS011;38480;52.724;6.436;2023-08-07T09:26:55;12.27;;;3.27;;
52586;SDS011;38480;52.724;6.436;2023-08-07T09:29:23;13.67;;;3.37;;
52586;SDS011;38480;52.724;6.436;2023-08-07T09:31:49;12.17;;;2.87;;
52586;SDS011;38480;52.724;6.436;2023-08-07T09:34:15;9.63;;;2.63;;
52586;SDS011;38480;52.724;6.436;2023-08-07T09:36:45;15.27;;;4.30;;
52586;SDS011;38480;52.724;6.436;2023-08-07T09:39:11;9.60;;;3.23;;
52586;SDS011;38480;52.724;6.436;2023-08-07T09:41:37;10.17;;;2.97;;
52586;SDS011;38480;52.724;6.436;2023-08-07T09:44:07;10.63;;;2.47;;
52586;SDS011;38480;52.724;6.436;2023-08-07T09:46:42;11.40;;;2.92;;
52586;SDS011;38480;52.724;6.436;2023-08-07T09:49:12;8.37;;;2.20;;
52586;SDS011;38480;52.724;6.436;2023-08-07T09:51:41;11.07;;;2.70;;
52586;SDS011;38480;52.724;6.436;2023-08-07T09:54:08;14.53;;;3.07;;
52586;SDS011;38480;52.724;6.436;2023-08-07T09:56:34;9.73;;;2.53;;
52586;SDS011;38480;52.724;6.436;2023-08-07T09:59:00;9.87;;;2.30;;
52586;SDS011;38480;52.724;6.436;2023-08-07T10:01:26;12.97;;;3.10;;
52586;SDS011;38480;52.724;6.436;2023-08-07T10:03:53;15.13;;;3.17;;
52586;SDS011;38480;52.724;6.436;2023-08-07T10:06:19;8.67;;;2.60;;
52586;SDS011;38480;52.724;6.436;2023-08-07T10:08:45;9.93;;;3.00;;
52586;SDS011;38480;52.724;6.436;2023-08-07T10:11:12;13.40;;;2.77;;
52586;SDS011;38480;52.724;6.436;2023-08-07T10:13:39;7.47;;;2.50;;
52586;SDS011;38480;52.724;6.436;2023-08-07T10:16:06;9.57;;;2.63;;
52586;SDS011;38480;52.724;6.436;2023-08-07T10:18:32;10.33;;;3.40;;
52586;SDS011;38480;52.724;6.436;2023-08-07T10:20:59;14.90;;;2.57;;
52586;SDS011;38480;52.724;6.436;2023-08-07T10:23:26;11.33;;;2.70;;
52586;SDS011;38480;52.724;6.436;2023-08-07T10:25:52;9.90;;;2.67;;
52586;SDS011;38480;52.724;6.436;2023-08-07T10:28:19;8.13;;;2.40;;
52586;SDS011;38480;52.724;6.436;2023-08-07T10:30:46;5.00;;;2.17;;
52586;SDS011;38480;52.724;6.436;2023-08-07T10:33:13;12.97;;;2.50;;
52586;SDS011;38480;52.724;6.436;2023-08-07T10:35:44;7.90;;;2.50;;
52586;SDS011;38480;52.724;6.436;2023-08-07T10:38:14;8.30;;;2.20;;
52586;SDS011;38480;52.724;6.436;2023-08-07T10:43:36;8.40;;;2.40;;
52586;SDS011;38480;52.724;6.436;2023-08-07T10:46:03;9.00;;;3.20;;
52586;SDS011;38480;52.724;6.436;2023-08-07T10:48:30;11.37;;;2.67;;
52586;SDS011;38480;52.724;6.436;2023-08-07T10:51:03;6.50;;;2.42;;
52586;SDS011;38480;52.724;6.436;2023-08-07T10:53:30;8.27;;;2.60;;
52586;SDS011;38480;52.724;6.436;2023-08-07T10:55:57;11.73;;;3.07;;
52586;SDS011;38480;52.724;6.436;2023-08-07T10:58:24;13.10;;;2.50;;
52586;SDS011;38480;52.724;6.436;2023-08-07T11:00:51;5.47;;;2.00;;
52586;SDS011;38480;52.724;6.436;2023-08-07T11:03:25;12.97;;;2.73;;
52586;SDS011;38480;52.724;6.436;2023-08-07T11:05:52;11.87;;;2.40;;
52586;SDS011;38480;52.724;6.436;2023-08-07T11:08:21;10.50;;;2.07;;
52586;SDS011;38480;52.724;6.436;2023-08-07T11:10:48;9.80;;;2.00;;
52586;SDS011;38480;52.724;6.436;2023-08-07T11:13:15;10.00;;;2.00;;
52586;SDS011;38480;52.724;6.436;2023-08-07T11:15:41;13.20;;;2.40;;
52586;SDS011;38480;52.724;6.436;2023-08-07T11:18:07;6.93;;;2.17;;
52586;SDS011;38480;52.724;6.436;2023-08-07T11:20:34;11.83;;;2.33;;
52586;SDS011;38480;52.724;6.436;2023-08-07T11:23:00;6.93;;;2.10;;
52586;SDS011;38480;52.724;6.436;2023-08-07T11:25:26;7.10;;;2.43;;
52586;SDS011;38480;52.724;6.436;2023-08-07T11:27:52;4.53;;;1.97;;
52586;SDS011;38480;52.724;6.436;2023-08-07T11:30:19;9.67;;;3.20;;
52586;SDS011;38480;52.724;6.436;2023-08-07T11:32:45;8.70;;;2.37;;
52586;SDS011;38480;52.724;6.436;2023-08-07T11:35:11;8.70;;;1.93;;
52586;SDS011;38480;52.724;6.436;2023-08-07T11:37:45;8.03;;;2.23;;
52586;SDS011;38480;52.724;6.436;2023-08-07T11:40:11;7.07;;;1.80;;
52586;SDS011;38480;52.724;6.436;2023-08-07T11:42:37;9.73;;;2.10;;
52586;SDS011;38480;52.724;6.436;2023-08-07T11:45:03;6.17;;;1.87;;
52586;SDS011;38480;52.724;6.436;2023-08-07T11:47:29;8.30;;;2.10;;
52586;SDS011;38480;52.724;6.436;2023-08-07T11:49:55;4.50;;;1.47;;
52586;SDS011;38480;52.724;6.436;2023-08-07T11:52:21;6.10;;;1.87;;
52586;SDS011;38480;52.724;6.436;2023-08-07T11:54:49;5.87;;;2.00;;
52586;SDS011;38480;52.724;6.436;2023-08-07T11:57:16;8.03;;;2.27;;
52586;SDS011;38480;52.724;6.436;2023-08-07T11:59:42;5.37;;;2.40;;
52586;SDS011;38480;52.724;6.436;2023-08-07T12:02:09;4.50;;;1.77;;
52586;SDS011;38480;52.724;6.436;2023-08-07T12:04:36;7.03;;;2.27;;
52586;SDS011;38480;52.724;6.436;2023-08-07T12:07:03;5.97;;;2.20;;
52586;SDS011;38480;52.724;6.436;2023-08-07T12:09:29;6.43;;;1.67;;
52586;SDS011;38480;52.724;6.436;2023-08-07T12:11:56;8.93;;;2.57;;
52586;SDS011;38480;52.724;6.436;2023-08-07T12:14:23;7.13;;;2.17;;
52586;SDS011;38480;52.724;6.436;2023-08-07T12:16:54;5.90;;;1.67;;
52586;SDS011;38480;52.724;6.436;2023-08-07T12:19:20;8.00;;;2.00;;
52586;SDS011;38480;52.724;6.436;2023-08-07T12:21:46;6.07;;;2.20;;
52586;SDS011;38480;52.724;6.436;2023-08-07T12:24:13;4.40;;;1.50;;
52586;SDS011;38480;52.724;6.436;2023-08-07T12:26:39;6.73;;;2.10;;
52586;SDS011;38480;52.724;6.436;2023-08-07T12:29:05;5.37;;;1.90;;
52586;SDS011;38480;52.724;6.436;2023-08-07T12:31:31;5.33;;;1.80;;
52586;SDS011;38480;52.724;6.436;2023-08-07T12:33:57;6.13;;;2.30;;
52586;SDS011;38480;52.724;6.436;2023-08-07T12:36:23;8.33;;;2.10;;
52586;SDS011;38480;52.724;6.436;2023-08-07T12:38:49;7.87;;;2.33;;
52586;SDS011;38480;52.724;6.436;2023-08-07T12:41:15;6.33;;;2.20;;
52586;SDS011;38480;52.724;6.436;2023-08-07T12:43:41;7.03;;;1.80;;
52586;SDS011;38480;52.724;6.436;2023-08-07T12:46:07;9.87;;;2.20;;
52586;SDS011;38480;52.724;6.436;2023-08-07T12:48:33;5.87;;;2.03;;
52586;SDS011;38480;52.724;6.436;2023-08-07T12:50:59;5.10;;;2.20;;
52586;SDS011;38480;52.724;6.436;2023-08-07T12:53:25;7.27;;;2.00;;
52586;SDS011;38480;52.724;6.436;2023-08-07T12:55:51;5.87;;;2.40;;
52586;SDS011;38480;52.724;6.436;2023-08-07T12:58:17;8.57;;;2.20;;
52586;SDS011;38480;52.724;6.436;2023-08-07T13:00:46;9.73;;;2.50;;
52586;SDS011;38480;52.724;6.436;2023-08-07T13:03:12;6.97;;;2.43;;
52586;SDS011;38480;52.724;6.436;2023-08-07T13:05:38;12.17;;;3.00;;
52586;SDS011;38480;52.724;6.436;2023-08-07T13:08:04;21.03;;;5.03;;
52586;SDS011;38480;52.724;6.436;2023-08-07T13:10:30;12.00;;;3.37;;
52586;SDS011;38480;52.724;6.436;2023-08-07T13:12:56;8.27;;;3.00;;
52586;SDS011;38480;52.724;6.436;2023-08-07T13:15:23;9.70;;;2.70;;
52586;SDS011;38480;52.724;6.436;2023-08-07T13:17:50;5.37;;;2.60;;
52586;SDS011;38480;52.724;6.436;2023-08-07T13:20:16;6.73;;;2.80;;
52586;SDS011;38480;52.724;6.436;2023-08-07T13:22:43;8.30;;;2.37;;
52586;SDS011;38480;52.724;6.436;2023-08-07T13:25:10;9.77;;;2.63;;
52586;SDS011;38480;52.724;6.436;2023-08-07T13:27:37;6.53;;;2.47;;
52586;SDS011;38480;52.724;6.436;2023-08-07T13:30:03;10.53;;;3.50;;
52586;SDS011;38480;52.724;6.436;2023-08-07T13:32:30;8.57;;;3.00;;
52586;SDS011;38480;52.724;6.436;2023-08-07T13:34:57;8.60;;;3.20;;
52586;SDS011;38480;52.724;6.436;2023-08-07T13:37:23;12.37;;;3.60;;
52586;SDS011;38480;52.724;6.436;2023-08-07T13:39:49;9.60;;;3.83;;
52586;SDS011;38480;52.724;6.436;2023-08-07T13:42:17;8.40;;;3.43;;
52586;SDS011;38480;52.724;6.436;2023-08-07T13:44:43;6.53;;;3.60;;
52586;SDS011;38480;52.724;6.436;2023-08-07T13:47:09;13.73;;;3.67;;
52586;SDS011;38480;52.724;6.436;2023-08-07T13:49:36;12.70;;;4.23;;
52586;SDS011;38480;52.724;6.436;2023-08-07T13:52:02;8.13;;;3.43;;
52586;SDS011;38480;52.724;6.436;2023-08-07T13:54:28;9.53;;;3.33;;
52586;SDS011;38480;52.724;6.436;2023-08-07T13:56:54;6.73;;;3.27;;
52586;SDS011;38480;52.724;6.436;2023-08-07T13:59:21;10.90;;;3.30;;
52586;SDS011;38480;52.724;6.436;2023-08-07T14:01:47;14.23;;;3.67;;
52586;SDS011;38480;52.724;6.436;2023-08-07T14:04:13;13.87;;;3.80;;
52586;SDS011;38480;52.724;6.436;2023-08-07T14:06:39;9.30;;;3.30;;
52586;SDS011;38480;52.724;6.436;2023-08-07T14:09:08;7.27;;;2.80;;
52586;SDS011;38480;52.724;6.436;2023-08-07T14:11:34;7.10;;;3.23;;
52586;SDS011;38480;52.724;6.436;2023-08-07T14:14:00;7.70;;;2.50;;
52586;SDS011;38480;52.724;6.436;2023-08-07T14:16:26;12.20;;;2.53;;
52586;SDS011;38480;52.724;6.436;2023-08-07T14:18:52;9.80;;;2.70;;
52586;SDS011;38480;52.724;6.436;2023-08-07T14:21:18;8.97;;;3.10;;
52586;SDS011;38480;52.724;6.436;2023-08-07T14:23:45;9.77;;;2.50;;
52586;SDS011;38480;52.724;6.436;2023-08-07T14:26:12;9.17;;;3.10;;
52586;SDS011;38480;52.724;6.436;2023-08-07T14:28:38;9.03;;;3.23;;
52586;SDS011;38480;52.724;6.436;2023-08-07T14:31:07;10.53;;;2.93;;
52586;SDS011;38480;52.724;6.436;2023-08-07T14:33:34;10.83;;;3.67;;
52586;SDS011;38480;52.724;6.436;2023-08-07T14:36:00;8.03;;;3.00;;
52586;SDS011;38480;52.724;6.436;2023-08-07T14:38:26;5.40;;;2.50;;
52586;SDS011;38480;52.724;6.436;2023-08-07T14:40:52;7.97;;;2.50;;